Latest Weather Observations for Hervey Bay

IDQ60801

Issued at 10:35 am EST Tuesday 25 November 2014 (issued every 30 minutes, with the page automatically refreshed every 10 minutes)

About weather observations | Map of weather stations | Latest weather observations for QLD | Other Formats
Station Details ID: 040405 Name: HERVEY BAY AIRPORT Lat: -25.32 Lon: 152.88 Height: 12.98 m
Data from the previous 72 hours. | See also: Recent months at Hervey Bay
Date/Time
EST
Temp
°C
App
Temp
°C
Dew
Point
Rel
Hum
%
Delta-T
°C
Wind Press
QNH
hPa
Press
MSL
hPa
Rain
since 9 am
mm
Dir
 
Spd
km/h
Gust
km/h
Spd
kts
Gust
kts
25/10:30am 27.9 27.9 18.9 58 5.8 N 17 24 9 13 1016.0 1015.9 0.0
25/10:00am 28.6 29.6 20.3 60 5.5 N 15 22 8 12 1016.1 1016.0 0.0
25/09:30am 28.1 28.3 19.3 58 5.7 N 17 24 9 13 1016.2 1016.1 0.0
25/09:00am 27.2 28.2 19.5 62 5.0 N 13 20 7 11 1016.3 1016.2 0.0
25/08:30am 27.5 27.8 19.6 62 5.1 N 17 24 9 13 1016.3 1016.2 0.0
25/08:00am 26.7 27.8 19.6 65 4.6 NNE 13 20 7 11 1016.1 1016.0 0.0
25/07:30am 26.3 26.4 19.2 65 4.6 N 17 24 9 13 1016.1 1016.0 0.0
25/07:00am 26.5 26.7 20.1 68 4.2 ENE 19 24 10 13 1016.0 1015.9 0.0
25/06:30am 25.1 28.7 20.6 76 2.9 SSW 2 7 1 4 1015.9 1015.8 0.0
25/06:00am 22.0 24.3 19.5 86 1.6 SSW 6 7 3 4 1015.8 1015.7 0.0
25/05:30am 19.9 21.8 18.6 92 0.8 SSW 6 7 3 4 1015.6 1015.5 0.0
25/05:00am 18.1 20.3 16.6 91 0.9 CALM 0 0 0 0 1015.3 1015.2 0.0
25/04:30am 18.3 20.2 16.6 90 1.0 NE 2 7 1 4 1014.8 1014.7 0.0
25/04:00am 18.5 19.6 16.7 89 1.1 NE 6 9 3 5 1014.6 1014.5 0.0
25/03:30am 18.7 20.5 16.5 87 1.3 NE 2 7 1 4 1014.6 1014.5 0.0
25/03:00am 20.1 21.6 16.7 81 2.1 NE 4 7 2 4 1014.5 1014.4 0.0
25/02:30am 22.4 24.3 19.0 81 2.2 NE 7 9 4 5 1014.6 1014.5 0.0
25/02:00am 23.2 24.8 19.1 78 2.6 NE 9 13 5 7 1014.7 1014.6 0.0
25/01:30am 23.4 24.1 18.9 76 2.9 ENE 13 17 7 9 1014.8 1014.7 0.0
25/01:00am 23.3 24.7 18.6 75 3.0 NE 9 13 5 7 1015.1 1015.0 0.0
25/12:30am 23.4 24.2 18.1 72 3.3 NNE 11 15 6 8 1015.4 1015.3 0.0
25/12:00am 23.2 24.5 18.5 75 3.0 NNE 9 11 5 6 1015.8 1015.7 0.0
 
Date/Time
EST
Temp
°C
App
Temp
°C
Dew
Point
Rel
Hum
%
Delta-T
°C
Wind Press
QNH
hPa
Press
MSL
hPa
Rain
since 9 am
mm
Dir
 
Spd
km/h
Gust
km/h
Spd
kts
Gust
kts
24/11:30pm 23.8 24.4 18.7 73 3.2 NNE 13 17 7 9 1015.9 1015.8 0.0
24/11:00pm 24.0 25.0 18.6 72 3.4 NNE 11 17 6 9 1016.3 1016.2 0.0
24/10:30pm 24.0 24.5 18.4 71 3.5 N 13 17 7 9 1016.5 1016.4 0.0
24/10:00pm 24.3 24.0 18.2 68 3.8 NNE 17 22 9 12 1016.5 1016.4 0.0
24/09:30pm 24.3 24.1 18.5 70 3.7 NNE 17 26 9 14 1016.3 1016.2 0.0
24/09:00pm 24.5 24.0 18.7 70 3.7 NNE 19 26 10 14 1016.0 1015.9 0.0
24/08:30pm 24.9 24.2 18.6 68 4.0 N 20 32 11 17 1015.8 1015.7 0.0
24/08:00pm 25.0 24.4 18.4 66 4.2 N 19 30 10 16 1015.1 1015.0 0.0
24/07:30pm 25.3 24.8 19.0 68 4.0 N 20 33 11 18 1014.9 1014.8 0.0
24/07:00pm 25.4 25.1 19.1 68 4.0 N 19 28 10 15 1014.9 1014.8 0.0
24/06:30pm 25.4 25.6 19.3 69 3.9 N 17 28 9 15 1014.5 1014.4 0.0
24/06:00pm 25.6 25.2 19.3 68 4.0 N 20 30 11 16 1014.1 1014.0 0.0
24/05:30pm 25.9 25.6 19.5 68 4.1 N 20 32 11 17 1013.7 1013.6 0.0
24/05:00pm 26.5 25.8 19.6 66 4.5 N 22 32 12 17 1013.6 1013.5 0.0
24/04:30pm 27.1 26.5 19.7 64 4.8 N 22 33 12 18 1013.5 1013.4 0.0
24/04:00pm 27.6 26.9 19.4 61 5.3 N 22 32 12 17 1013.8 1013.7 0.0
24/03:30pm 27.7 26.5 19.2 60 5.5 N 24 32 13 17 1013.9 1013.8 0.0
24/03:00pm 28.5 27.9 19.7 59 5.7 N 22 33 12 18 1014.0 1013.9 0.0
24/02:30pm 28.2 27.2 19.7 60 5.5 N 24 35 13 19 1014.5 1014.4 0.0
24/02:00pm 28.6 27.7 19.8 59 5.7 N 24 35 13 19 1014.7 1014.6 0.0
24/01:30pm 28.9 27.8 19.5 57 6.1 N 24 32 13 17 1015.1 1015.0 0.0
24/01:00pm 29.7 29.1 19.7 55 6.5 N 22 30 12 16 1015.4 1015.3 0.0
24/12:30pm 29.5 28.0 18.6 52 7.0 N 24 33 13 18 1015.6 1015.5 0.0
24/12:00pm 29.9 28.4 16.3 43 8.5 N 19 26 10 14 1016.1 1016.0 0.0
24/11:30am 29.9 28.7 16.0 43 8.6 N 17 24 9 13 1016.5 1016.4 0.0
24/11:00am 30.0 28.5 15.3 41 9.0 N 17 24 9 13 1017.0 1016.9 0.0
24/10:30am 29.4 28.5 14.8 41 8.9 NNE 13 22 7 12 1017.3 1017.2 0.0
24/10:00am 29.0 26.9 13.6 38 9.2 N 17 24 9 13 1017.6 1017.5 0.0
24/09:30am 28.7 28.1 16.6 48 7.5 ENE 15 20 8 11 1017.9 1017.8 0.0
24/09:00am 28.7 28.5 16.6 48 7.5 NE 13 22 7 12 1018.1 1018.0 0.0
24/08:30am 27.6 27.4 17.7 54 6.3 ENE 15 22 8 12 1018.2 1018.1 0.0
24/08:00am 26.6 26.1 17.7 58 5.6 NE 17 20 9 11 1018.2 1018.1 0.0
24/07:30am 26.7 28.1 19.6 65 4.6 ENE 11 20 6 11 1018.1 1018.0 0.0
24/07:00am 26.6 27.7 19.7 66 4.5 ENE 13 20 7 11 1017.7 1017.6 0.0
24/06:30am 26.2 28.3 19.3 65 4.4 NE 7 11 4 6 1017.5 1017.4 0.0
24/06:00am 24.8 26.2 19.6 73 3.3 NE 11 15 6 8 1017.5 1017.4 0.0
24/05:30am 23.8 25.3 19.7 78 2.6 NE 11 17 6 9 1017.2 1017.1 0.0
24/05:00am 23.3 24.4 19.7 80 2.3 ENE 13 15 7 8 1017.0 1016.9 0.0
24/04:30am 23.2 24.3 19.6 80 2.3 NE 13 19 7 10 1016.9 1016.8 0.0
24/04:00am 23.2 23.9 19.6 80 2.3 NE 15 20 8 11 1016.8 1016.7 0.0
24/03:30am 23.3 24.5 19.9 81 2.2 NE 13 20 7 11 1016.7 1016.6 0.0
24/03:00am 23.3 24.5 19.9 81 2.2 NE 13 20 7 11 1016.5 1016.4 0.0
24/02:30am 23.7 24.1 19.8 79 2.5 NE 17 24 9 13 1016.6 1016.5 0.0
24/02:00am 24.0 25.0 20.3 80 2.4 ENE 15 20 8 11 1016.6 1016.5 0.0
24/01:30am 24.3 25.1 20.6 80 2.4 NE 17 22 9 12 1016.5 1016.4 0.0
24/01:00am 23.8 24.0 20.1 80 2.4 NE 19 26 10 14 1016.5 1016.4 0.0
24/12:30am 24.2 24.8 20.3 79 2.5 NE 17 26 9 14 1016.9 1016.8 0.0
24/12:00am 24.4 26.5 20.9 81 2.3 NE 11 15 6 8 1017.0 1016.9 0.0
 
Date/Time
EST
Temp
°C
App
Temp
°C
Dew
Point
Rel
Hum
%
Delta-T
°C
Wind Press
QNH
hPa
Press
MSL
hPa
Rain
since 9 am
mm
Dir
 
Spd
km/h
Gust
km/h
Spd
kts
Gust
kts
23/11:30pm 24.6 26.2 20.7 79 2.6 NE 13 17 7 9 1017.2 1017.1 0.0
23/11:00pm 24.9 25.1 20.2 75 3.1 NE 19 26 10 14 1017.1 1017.0 0.0
23/10:30pm 24.9 25.6 20.4 76 2.9 NNE 17 24 9 13 1017.1 1017.0 0.0
23/10:00pm 24.7 25.5 20.6 78 2.7 NE 17 22 9 12 1017.2 1017.1 0.0
23/09:30pm 24.7 25.4 20.4 77 2.8 NE 17 20 9 11 1017.1 1017.0 0.0
23/09:00pm 24.9 25.6 20.4 76 2.9 NE 17 26 9 14 1017.0 1016.9 0.0
23/08:30pm 25.0 25.1 20.0 74 3.2 NNE 19 28 10 15 1016.6 1016.5 0.0
23/08:00pm 25.1 25.0 19.9 73 3.4 NNE 20 26 11 14 1016.3 1016.2 0.0
23/07:30pm 25.4 25.8 19.8 71 3.6 NNE 17 28 9 15 1016.1 1016.0 0.0
23/07:00pm 25.6 26.0 19.9 70 3.7 NNE 17 24 9 13 1015.8 1015.7 0.0
23/06:30pm 25.8 26.0 19.4 67 4.1 NNE 17 28 9 15 1015.4 1015.3 0.0
23/06:00pm 25.9 25.9 19.8 69 4.0 NNE 19 30 10 16 1015.1 1015.0 0.0
23/05:30pm 26.7 26.3 19.3 64 4.8 NNE 20 30 11 16 1014.9 1014.8 0.0
23/05:00pm 27.2 26.8 19.3 62 5.1 N 20 30 11 16 1014.9 1014.8 0.0
23/04:30pm 28.0 27.3 18.7 57 6.0 NNE 20 28 11 15 1015.0 1014.9 0.0
23/04:00pm 28.4 28.1 18.2 54 6.5 N 17 26 9 14 1015.1 1015.0 0.0
23/03:30pm 28.8 28.5 18.3 53 6.7 N 17 24 9 13 1015.4 1015.3 0.0
23/03:00pm 29.1 28.1 17.6 50 7.3 N 19 26 10 14 1015.6 1015.5 0.0
23/02:30pm 29.6 28.5 17.4 47 7.7 N 19 26 10 14 1015.7 1015.6 0.0
23/02:00pm 29.0 27.7 16.9 48 7.6 N 19 26 10 14 1016.0 1015.9 0.0
23/01:30pm 29.7 28.8 16.8 45 8.1 N 17 26 9 14 1016.4 1016.3 0.0
23/01:00pm 29.3 28.3 16.5 46 8.0 N 17 26 9 14 1016.7 1016.6 0.0
23/12:30pm 29.9 29.3 16.7 45 8.3 N 15 24 8 13 1017.0 1016.9 0.0
23/12:00pm 29.7 28.1 16.1 43 8.4 N 19 26 10 14 1017.3 1017.2 0.0
23/11:30am 29.6 28.7 16.8 46 8.0 N 17 22 9 12 1017.8 1017.7 0.0
23/11:00am 28.9 27.7 16.1 46 7.9 N 17 24 9 13 1018.1 1018.0 0.0
23/10:30am 28.7 27.2 16.3 47 7.7 NNW 19 26 10 14 1018.3 1018.2 0.0
23/10:00am 28.8 28.0 16.0 45 7.9 N 15 24 8 13 1018.3 1018.2 0.0
23/09:30am 28.2 26.8 15.5 46 7.8 N 17 24 9 13 1018.5 1018.4 0.0
23/09:00am 28.1 27.8 17.3 52 6.8 N 15 24 8 13 1018.6 1018.5 0.0
23/08:30am 27.8 27.7 17.9 54 6.3 N 15 20 8 11 1018.5 1018.4 0.0
23/08:00am 27.8 28.0 18.5 57 5.9 NNE 15 22 8 12 1018.4 1018.3 0.0
23/07:30am 27.1 26.7 18.1 58 5.7 NNE 17 26 9 14 1018.3 1018.2 0.0
23/07:00am 26.5 26.1 18.1 60 5.3 N 17 24 9 13 1018.1 1018.0 0.0
23/06:30am 26.2 25.6 17.6 59 5.4 NNE 17 24 9 13 1017.6 1017.5 0.0
23/06:00am 25.6 25.0 18.5 65 4.5 NNE 19 26 10 14 1017.1 1017.0 0.0
23/05:30am 25.3 24.8 18.7 67 4.2 NNE 19 24 10 13 1016.7 1016.6 0.0
23/05:00am 24.6 24.3 19.2 72 3.5 NNE 19 24 10 13 1016.2 1016.1 0.0
23/04:30am 24.6 24.8 19.4 73 3.3 NNE 17 24 9 13 1015.9 1015.8 0.0
23/04:00am 24.8 25.2 19.8 74 3.2 NNE 17 22 9 12 1015.7 1015.6 0.0
23/03:30am 24.6 25.0 19.9 75 3.0 NNE 17 24 9 13 1015.4 1015.3 0.0
23/03:00am 24.7 24.9 20.2 76 2.9 NNE 19 26 10 14 1015.2 1015.1 0.0
23/02:30am 24.8 25.4 20.3 76 2.9 NNE 17 24 9 13 1015.3 1015.2 0.0
23/02:00am 24.9 25.3 19.9 74 3.2 NNE 17 24 9 13 1015.3 1015.2 0.0
23/01:30am 24.7 25.2 20.0 75 3.0 NNE 17 22 9 12 1015.7 1015.6 0.0
23/01:00am 24.7 25.2 20.0 75 3.0 NNE 17 24 9 13 1015.9 1015.8 0.0
23/12:30am 25.0 25.7 20.5 76 2.9 NNE 17 22 9 12 1016.0 1015.9 0.0
23/12:00am 25.1 25.5 20.6 76 2.9 NNE 19 26 10 14 1016.3 1016.2 0.0
 
Date/Time
EST
Temp
°C
App
Temp
°C
Dew
Point
Rel
Hum
%
Delta-T
°C
Wind Press
QNH
hPa
Press
MSL
hPa
Rain
since 9 am
mm
Dir
 
Spd
km/h
Gust
km/h
Spd
kts
Gust
kts
22/11:30pm 25.1 26.4 20.8 77 2.8 N 15 22 8 12 1016.4 1016.3 0.0
22/11:00pm 25.0 26.0 20.3 75 3.1 N 15 20 8 11 1016.6 1016.5 0.0
22/10:30pm 25.2 25.8 20.2 74 3.3 NNE 17 26 9 14 1016.7 1016.6 0.0
22/10:00pm 25.2 26.1 20.9 77 2.8 NNE 17 24 9 13 1016.5 1016.4 0.0
22/09:30pm 25.2 26.7 21.3 79 2.6 N 15 22 8 12 1016.4 1016.3 0.0
22/09:00pm 25.2 26.6 21.1 78 2.7 N 15 20 8 11 1016.3 1016.2 0.0
22/08:30pm 25.3 26.3 21.0 77 2.8 N 17 22 9 12 1016.0 1015.9 0.0
22/08:00pm 25.3 25.9 21.0 77 2.8 N 19 26 10 14 1015.5 1015.4 0.0
22/07:30pm 25.3 26.7 21.0 77 2.8 N 15 24 8 13 1014.9 1014.8 0.0
22/07:00pm 25.4 26.4 21.1 77 2.8 N 17 26 9 14 1014.7 1014.6 0.0
22/06:30pm 25.5 26.5 21.0 76 3.0 N 17 26 9 14 1014.2 1014.1 0.0
22/06:00pm 25.8 26.4 21.0 75 3.2 N 19 28 10 15 1013.8 1013.7 0.0
22/05:30pm 26.3 26.5 21.3 74 3.3 N 22 33 12 18 1013.6 1013.5 0.0
22/05:00pm 26.8 26.5 21.1 71 3.8 N 24 32 13 17 1013.2 1013.1 0.0
22/04:30pm 27.4 27.4 21.7 71 3.8 N 24 35 13 19 1013.2 1013.1 0.0
22/04:00pm 28.2 28.1 21.5 67 4.5 N 24 35 13 19 1013.3 1013.2 0.0
22/03:30pm 28.6 29.6 22.1 68 4.4 N 20 32 11 17 1013.3 1013.2 0.0
22/03:00pm 28.8 28.8 21.6 65 4.8 N 24 35 13 19 1013.6 1013.5 0.0
22/02:30pm 28.3 27.3 21.3 65 4.7 N 28 37 15 20 1013.8 1013.7 0.0
22/02:00pm 29.0 29.0 21.7 64 4.9 N 24 35 13 19 1014.1 1014.0 0.0
22/01:30pm 28.7 28.6 21.5 65 4.8 N 24 35 13 19 1014.4 1014.3 0.0
22/01:00pm 29.1 29.2 21.8 64 4.9 N 24 35 13 19 1014.8 1014.7 0.0
22/12:30pm 28.8 28.4 21.6 65 4.8 N 26 35 14 19 1015.1 1015.0 0.0
22/12:00pm 28.5 28.3 21.3 65 4.8 N 24 33 13 18 1015.6 1015.5 0.0
22/11:30am 28.2 27.8 21.7 68 4.4 NNE 26 33 14 18 1015.8 1015.7 0.0
22/11:00am 28.0 28.1 21.8 69 4.2 N 24 33 13 18 1016.2 1016.1 0.0

Other Formats:

Comma delimited format used in spreadsheet applications
http://www.bom.gov.au/fwo/IDQ60801/IDQ60801.95565.axf

JavaScript Object Notation format (JSON) in row-major order
http://www.bom.gov.au/fwo/IDQ60801/IDQ60801.95565.json